Huvudsida
METAR-TAF:

METAR-TAF

Flygplatser :

Colmenar Viejo, Spanien

latitud: 40-39N, longitud: 003-44W, höjd: -999 m

Aktuellt väderrapport

Denna rapport gjordes för 40 minuter sedan, klockan 17:00 UTC
Stilla vind
Temperatur 30°C
Fuktighet 24%
Tryck 1025 hPa
Sikt 10 km eller mer
Inga moln under 1 500 m eller inga cumulonimbus

METAR: LECV 221700Z 00000KT CAVOK 30/07 Q1025

Tid: 19:40 (17:40 UTC)

Väderprognos

Denna rapport gjordes för 40 minuter sedan, klockan 17:00 UTC
Prognos gäller från 22 kl. 18 UTC till 23 kl. 03 UTC
Vind 4 kt varierande vindriktning
Sikt 10 km eller mer
Inga moln under 1 500 m eller inga cumulonimbus
Sannolikhet 30% :
Temporärt
från 22 kl. 18 UTC till 22 kl. 20 UTC
Vind 6 kt från sydväst i byarna ända upp till 16 kt

TAF: LECV 221700Z 2218/2303 VRB04KT CAVOK PROB30 TEMPO 2218/2220 23006G16KT

Aktuella väderrapporter och prognoser från 4000 flygplatser (METAR- och TAF-rapporter).

De tillgängliga stationerna syns som gula och röda prickar på kartan.

För musen över prickarna för att se namnen på stationerna.

Klicka sedan för att få väderrapporter och prognoser.

För att ändra kartan: Klicka på de gröna knapparna med ett svart kors på för att zooma in; den gröna knappen med ett streck på för att zooma ut; eller på de gröna pilarna för angränsande kartor.


METAR-TAF: